sensor_id;sensor_type;location;lat;lon;timestamp;P1;durP1;ratioP1;P2;durP2;ratioP2
73841;SDS011;62184;52.006;5.924;2023-12-28T00:01:47;22.63;;;21.15;;
73841;SDS011;62184;52.006;5.924;2023-12-28T00:04:14;22.00;;;20.60;;
73841;SDS011;62184;52.006;5.924;2023-12-28T00:06:40;22.37;;;20.97;;
73841;SDS011;62184;52.006;5.924;2023-12-28T00:09:07;21.60;;;20.20;;
73841;SDS011;62184;52.006;5.924;2023-12-28T00:11:33;23.08;;;21.67;;
73841;SDS011;62184;52.006;5.924;2023-12-28T00:14:00;23.15;;;21.65;;
73841;SDS011;62184;52.006;5.924;2023-12-28T00:16:26;23.38;;;21.88;;
73841;SDS011;62184;52.006;5.924;2023-12-28T00:18:56;22.40;;;21.00;;
73841;SDS011;62184;52.006;5.924;2023-12-28T00:21:22;22.77;;;21.25;;
73841;SDS011;62184;52.006;5.924;2023-12-28T00:23:48;22.00;;;20.60;;
73841;SDS011;62184;52.006;5.924;2023-12-28T00:26:15;23.05;;;21.63;;
73841;SDS011;62184;52.006;5.924;2023-12-28T00:28:41;23.50;;;22.00;;
73841;SDS011;62184;52.006;5.924;2023-12-28T00:31:09;23.03;;;21.60;;
73841;SDS011;62184;52.006;5.924;2023-12-28T00:33:35;21.58;;;20.17;;
73841;SDS011;62184;52.006;5.924;2023-12-28T00:36:04;22.70;;;21.17;;
73841;SDS011;62184;52.006;5.924;2023-12-28T00:38:31;22.33;;;20.77;;
73841;SDS011;62184;52.006;5.924;2023-12-28T00:40:58;22.23;;;20.77;;
73841;SDS011;62184;52.006;5.924;2023-12-28T00:43:24;22.08;;;20.48;;
73841;SDS011;62184;52.006;5.924;2023-12-28T00:45:50;22.35;;;20.85;;
73841;SDS011;62184;52.006;5.924;2023-12-28T00:48:17;22.50;;;20.90;;
73841;SDS011;62184;52.006;5.924;2023-12-28T00:50:43;22.38;;;20.77;;
73841;SDS011;62184;52.006;5.924;2023-12-28T00:53:12;22.38;;;20.77;;
73841;SDS011;62184;52.006;5.924;2023-12-28T00:55:39;21.58;;;20.08;;
73841;SDS011;62184;52.006;5.924;2023-12-28T00:58:05;22.10;;;20.40;;
73841;SDS011;62184;52.006;5.924;2023-12-28T01:00:31;27.05;;;25.25;;
73841;SDS011;62184;52.006;5.924;2023-12-28T01:02:58;29.10;;;27.27;;
73841;SDS011;62184;52.006;5.924;2023-12-28T01:05:24;29.85;;;27.95;;
73841;SDS011;62184;52.006;5.924;2023-12-28T01:07:51;28.83;;;27.02;;
73841;SDS011;62184;52.006;5.924;2023-12-28T01:10:20;28.70;;;26.90;;
73841;SDS011;62184;52.006;5.924;2023-12-28T01:12:47;28.52;;;26.77;;
73841;SDS011;62184;52.006;5.924;2023-12-28T01:15:13;28.58;;;26.77;;
73841;SDS011;62184;52.006;5.924;2023-12-28T01:17:40;28.65;;;26.80;;
73841;SDS011;62184;52.006;5.924;2023-12-28T01:20:07;29.10;;;27.30;;
73841;SDS011;62184;52.006;5.924;2023-12-28T01:22:34;28.60;;;26.88;;
73841;SDS011;62184;52.006;5.924;2023-12-28T01:25:01;28.13;;;26.42;;
73841;SDS011;62184;52.006;5.924;2023-12-28T01:27:30;29.52;;;27.63;;
73841;SDS011;62184;52.006;5.924;2023-12-28T01:29:56;29.40;;;27.50;;
73841;SDS011;62184;52.006;5.924;2023-12-28T01:32:23;28.60;;;26.80;;
73841;SDS011;62184;52.006;5.924;2023-12-28T01:34:49;29.30;;;27.48;;
73841;SDS011;62184;52.006;5.924;2023-12-28T01:37:16;28.88;;;27.08;;
73841;SDS011;62184;52.006;5.924;2023-12-28T01:39:42;28.80;;;27.10;;
73841;SDS011;62184;52.006;5.924;2023-12-28T01:42:09;28.80;;;27.00;;
73841;SDS011;62184;52.006;5.924;2023-12-28T01:44:38;28.67;;;26.87;;
73841;SDS011;62184;52.006;5.924;2023-12-28T01:47:04;28.88;;;27.08;;
73841;SDS011;62184;52.006;5.924;2023-12-28T01:49:32;29.43;;;27.63;;
73841;SDS011;62184;52.006;5.924;2023-12-28T01:52:01;29.93;;;27.97;;
73841;SDS011;62184;52.006;5.924;2023-12-28T01:54:30;29.05;;;27.25;;
73841;SDS011;62184;52.006;5.924;2023-12-28T01:56:57;29.27;;;27.48;;
73841;SDS011;62184;52.006;5.924;2023-12-28T01:59:27;28.38;;;26.58;;
73841;SDS011;62184;52.006;5.924;2023-12-28T02:01:56;29.02;;;27.33;;
73841;SDS011;62184;52.006;5.924;2023-12-28T02:04:23;29.08;;;27.27;;
73841;SDS011;62184;52.006;5.924;2023-12-28T02:06:50;29.50;;;27.77;;
73841;SDS011;62184;52.006;5.924;2023-12-28T02:09:16;29.10;;;27.33;;
73841;SDS011;62184;52.006;5.924;2023-12-28T02:11:43;29.25;;;27.55;;
73841;SDS011;62184;52.006;5.924;2023-12-28T02:14:09;29.63;;;27.83;;
73841;SDS011;62184;52.006;5.924;2023-12-28T02:16:36;29.33;;;27.53;;
73841;SDS011;62184;52.006;5.924;2023-12-28T02:19:17;29.42;;;27.63;;
73841;SDS011;62184;52.006;5.924;2023-12-28T02:21:57;29.38;;;27.58;;
73841;SDS011;62184;52.006;5.924;2023-12-28T02:24:25;29.63;;;27.83;;
73841;SDS011;62184;52.006;5.924;2023-12-28T02:26:54;29.97;;;28.10;;
73841;SDS011;62184;52.006;5.924;2023-12-28T02:29:21;30.10;;;28.13;;
73841;SDS011;62184;52.006;5.924;2023-12-28T02:31:49;29.83;;;27.93;;
73841;SDS011;62184;52.006;5.924;2023-12-28T02:34:27;30.35;;;28.50;;
73841;SDS011;62184;52.006;5.924;2023-12-28T02:37:03;30.08;;;28.17;;
73841;SDS011;62184;52.006;5.924;2023-12-28T02:39:31;30.40;;;28.50;;
73841;SDS011;62184;52.006;5.924;2023-12-28T02:42:01;29.60;;;27.70;;
73841;SDS011;62184;52.006;5.924;2023-12-28T02:44:28;29.73;;;27.73;;
73841;SDS011;62184;52.006;5.924;2023-12-28T02:46:54;29.52;;;27.73;;
73841;SDS011;62184;52.006;5.924;2023-12-28T02:49:21;30.02;;;28.13;;
73841;SDS011;62184;52.006;5.924;2023-12-28T02:51:47;29.50;;;27.63;;
73841;SDS011;62184;52.006;5.924;2023-12-28T02:54:14;29.52;;;27.63;;
73841;SDS011;62184;52.006;5.924;2023-12-28T02:56:40;30.25;;;28.08;;
73841;SDS011;62184;52.006;5.924;2023-12-28T02:59:09;28.92;;;27.02;;
73841;SDS011;62184;52.006;5.924;2023-12-28T03:01:36;30.40;;;28.48;;
73841;SDS011;62184;52.006;5.924;2023-12-28T03:04:02;29.60;;;27.80;;
73841;SDS011;62184;52.006;5.924;2023-12-28T03:06:29;29.23;;;27.40;;
73841;SDS011;62184;52.006;5.924;2023-12-28T03:08:55;29.35;;;27.45;;
73841;SDS011;62184;52.006;5.924;2023-12-28T03:11:22;29.55;;;27.65;;
73841;SDS011;62184;52.006;5.924;2023-12-28T03:13:48;29.45;;;27.67;;
73841;SDS011;62184;52.006;5.924;2023-12-28T03:16:17;29.30;;;27.52;;
73841;SDS011;62184;52.006;5.924;2023-12-28T03:18:43;28.30;;;26.50;;
73841;SDS011;62184;52.006;5.924;2023-12-28T03:21:10;29.02;;;27.23;;
73841;SDS011;62184;52.006;5.924;2023-12-28T03:23:36;29.42;;;27.52;;
73841;SDS011;62184;52.006;5.924;2023-12-28T03:26:03;29.40;;;27.60;;
73841;SDS011;62184;52.006;5.924;2023-12-28T03:28:29;29.40;;;27.50;;
73841;SDS011;62184;52.006;5.924;2023-12-28T03:30:56;28.77;;;26.98;;
73841;SDS011;62184;52.006;5.924;2023-12-28T03:33:25;29.40;;;27.42;;
73841;SDS011;62184;52.006;5.924;2023-12-28T03:35:51;29.65;;;27.70;;
73841;SDS011;62184;52.006;5.924;2023-12-28T03:38:18;28.83;;;27.13;;
73841;SDS011;62184;52.006;5.924;2023-12-28T03:40:44;30.50;;;28.52;;
73841;SDS011;62184;52.006;5.924;2023-12-28T03:43:10;29.83;;;27.83;;
73841;SDS011;62184;52.006;5.924;2023-12-28T03:45:38;29.17;;;27.48;;
73841;SDS011;62184;52.006;5.924;2023-12-28T03:48:04;29.30;;;27.30;;
73841;SDS011;62184;52.006;5.924;2023-12-28T03:50:34;28.95;;;27.17;;
73841;SDS011;62184;52.006;5.924;2023-12-28T03:53:00;27.03;;;25.27;;
73841;SDS011;62184;52.006;5.924;2023-12-28T03:55:27;27.13;;;25.33;;
73841;SDS011;62184;52.006;5.924;2023-12-28T03:57:53;27.40;;;25.50;;
73841;SDS011;62184;52.006;5.924;2023-12-28T04:00:20;27.95;;;26.05;;
73841;SDS011;62184;52.006;5.924;2023-12-28T04:02:47;30.70;;;28.60;;
73841;SDS011;62184;52.006;5.924;2023-12-28T04:05:13;31.13;;;29.13;;
73841;SDS011;62184;52.006;5.924;2023-12-28T04:07:43;29.45;;;27.65;;
73841;SDS011;62184;52.006;5.924;2023-12-28T04:10:09;29.98;;;27.90;;
73841;SDS011;62184;52.006;5.924;2023-12-28T04:12:36;31.42;;;29.23;;
73841;SDS011;62184;52.006;5.924;2023-12-28T04:15:02;29.92;;;28.05;;
73841;SDS011;62184;52.006;5.924;2023-12-28T04:17:30;30.05;;;27.98;;
73841;SDS011;62184;52.006;5.924;2023-12-28T04:19:56;30.27;;;28.40;;
73841;SDS011;62184;52.006;5.924;2023-12-28T04:22:23;30.50;;;28.50;;
73841;SDS011;62184;52.006;5.924;2023-12-28T04:24:52;29.83;;;27.98;;
73841;SDS011;62184;52.006;5.924;2023-12-28T04:27:18;29.90;;;27.93;;
73841;SDS011;62184;52.006;5.924;2023-12-28T04:29:45;28.95;;;26.80;;
73841;SDS011;62184;52.006;5.924;2023-12-28T04:32:11;27.60;;;25.83;;
73841;SDS011;62184;52.006;5.924;2023-12-28T04:34:38;25.85;;;24.05;;
73841;SDS011;62184;52.006;5.924;2023-12-28T04:37:04;24.63;;;22.92;;
73841;SDS011;62184;52.006;5.924;2023-12-28T04:39:31;23.63;;;21.90;;
73841;SDS011;62184;52.006;5.924;2023-12-28T04:41:59;24.52;;;22.58;;
73841;SDS011;62184;52.006;5.924;2023-12-28T04:44:26;24.50;;;22.70;;
73841;SDS011;62184;52.006;5.924;2023-12-28T04:46:52;24.05;;;22.17;;
73841;SDS011;62184;52.006;5.924;2023-12-28T04:49:19;24.33;;;22.52;;
73841;SDS011;62184;52.006;5.924;2023-12-28T04:51:46;23.15;;;21.38;;
73841;SDS011;62184;52.006;5.924;2023-12-28T04:54:13;23.23;;;21.52;;
73841;SDS011;62184;52.006;5.924;2023-12-28T04:56:39;22.67;;;20.88;;
73841;SDS011;62184;52.006;5.924;2023-12-28T04:59:08;22.75;;;21.13;;
73841;SDS011;62184;52.006;5.924;2023-12-28T05:01:40;23.30;;;21.50;;
73841;SDS011;62184;52.006;5.924;2023-12-28T05:04:07;23.27;;;21.40;;
73841;SDS011;62184;52.006;5.924;2023-12-28T05:06:33;23.10;;;21.30;;
73841;SDS011;62184;52.006;5.924;2023-12-28T05:09:00;22.75;;;20.75;;
73841;SDS011;62184;52.006;5.924;2023-12-28T05:11:26;22.10;;;20.33;;
73841;SDS011;62184;52.006;5.924;2023-12-28T05:13:53;23.13;;;21.05;;
73841;SDS011;62184;52.006;5.924;2023-12-28T05:16:22;22.58;;;20.58;;
73841;SDS011;62184;52.006;5.924;2023-12-28T05:18:48;22.40;;;20.55;;
73841;SDS011;62184;52.006;5.924;2023-12-28T05:21:14;23.42;;;21.40;;
73841;SDS011;62184;52.006;5.924;2023-12-28T05:23:41;22.75;;;20.98;;
73841;SDS011;62184;52.006;5.924;2023-12-28T05:26:07;24.13;;;22.33;;
73841;SDS011;62184;52.006;5.924;2023-12-28T05:28:34;23.77;;;22.08;;
73841;SDS011;62184;52.006;5.924;2023-12-28T05:31:00;22.60;;;20.75;;
73841;SDS011;62184;52.006;5.924;2023-12-28T05:33:29;22.98;;;20.98;;
73841;SDS011;62184;52.006;5.924;2023-12-28T05:35:55;23.48;;;21.75;;
73841;SDS011;62184;52.006;5.924;2023-12-28T05:38:22;22.83;;;20.88;;
73841;SDS011;62184;52.006;5.924;2023-12-28T05:40:48;25.58;;;23.40;;
73841;SDS011;62184;52.006;5.924;2023-12-28T05:43:15;22.52;;;20.60;;
73841;SDS011;62184;52.006;5.924;2023-12-28T05:45:41;23.55;;;21.48;;
73841;SDS011;62184;52.006;5.924;2023-12-28T05:48:07;22.52;;;20.63;;
73841;SDS011;62184;52.006;5.924;2023-12-28T05:50:36;24.27;;;22.27;;
73841;SDS011;62184;52.006;5.924;2023-12-28T05:53:03;24.38;;;22.30;;
73841;SDS011;62184;52.006;5.924;2023-12-28T05:55:29;23.50;;;21.70;;
73841;SDS011;62184;52.006;5.924;2023-12-28T05:57:56;23.42;;;21.20;;
73841;SDS011;62184;52.006;5.924;2023-12-28T06:00:22;22.75;;;20.85;;
73841;SDS011;62184;52.006;5.924;2023-12-28T06:02:48;25.15;;;23.15;;
73841;SDS011;62184;52.006;5.924;2023-12-28T06:05:15;24.40;;;22.25;;
73841;SDS011;62184;52.006;5.924;2023-12-28T06:07:44;25.08;;;23.17;;
73841;SDS011;62184;52.006;5.924;2023-12-28T06:10:10;24.35;;;22.27;;
73841;SDS011;62184;52.006;5.924;2023-12-28T06:12:37;24.30;;;22.13;;
73841;SDS011;62184;52.006;5.924;2023-12-28T06:15:04;22.63;;;20.65;;
73841;SDS011;62184;52.006;5.924;2023-12-28T06:17:32;22.70;;;20.73;;
73841;SDS011;62184;52.006;5.924;2023-12-28T06:19:58;24.70;;;22.80;;
73841;SDS011;62184;52.006;5.924;2023-12-28T06:22:25;22.10;;;20.20;;
73841;SDS011;62184;52.006;5.924;2023-12-28T06:24:54;23.02;;;21.02;;
73841;SDS011;62184;52.006;5.924;2023-12-28T06:27:20;22.50;;;20.48;;
73841;SDS011;62184;52.006;5.924;2023-12-28T06:29:47;21.58;;;19.58;;
73841;SDS011;62184;52.006;5.924;2023-12-28T06:32:14;22.52;;;20.55;;
73841;SDS011;62184;52.006;5.924;2023-12-28T06:34:40;22.40;;;20.40;;
73841;SDS011;62184;52.006;5.924;2023-12-28T06:37:07;23.13;;;21.10;;
73841;SDS011;62184;52.006;5.924;2023-12-28T06:39:33;22.87;;;21.00;;
73841;SDS011;62184;52.006;5.924;2023-12-28T06:42:02;23.05;;;20.98;;
73841;SDS011;62184;52.006;5.924;2023-12-28T06:44:29;21.20;;;19.27;;
73841;SDS011;62184;52.006;5.924;2023-12-28T06:46:56;21.70;;;19.80;;
73841;SDS011;62184;52.006;5.924;2023-12-28T06:49:22;23.33;;;21.27;;
73841;SDS011;62184;52.006;5.924;2023-12-28T06:51:49;22.58;;;20.67;;
73841;SDS011;62184;52.006;5.924;2023-12-28T06:54:15;21.80;;;19.90;;
73841;SDS011;62184;52.006;5.924;2023-12-28T06:56:42;22.05;;;20.13;;
73841;SDS011;62184;52.006;5.924;2023-12-28T06:59:11;22.17;;;19.98;;
73841;SDS011;62184;52.006;5.924;2023-12-28T07:01:38;21.27;;;19.38;;
73841;SDS011;62184;52.006;5.924;2023-12-28T07:04:04;22.23;;;20.13;;
73841;SDS011;62184;52.006;5.924;2023-12-28T07:06:31;21.33;;;19.03;;
73841;SDS011;62184;52.006;5.924;2023-12-28T07:08:57;21.90;;;19.65;;
73841;SDS011;62184;52.006;5.924;2023-12-28T07:11:23;22.35;;;20.48;;
73841;SDS011;62184;52.006;5.924;2023-12-28T07:13:50;21.83;;;19.58;;
73841;SDS011;62184;52.006;5.924;2023-12-28T07:16:19;21.33;;;19.08;;
73841;SDS011;62184;52.006;5.924;2023-12-28T07:18:45;21.20;;;19.27;;
73841;SDS011;62184;52.006;5.924;2023-12-28T07:21:12;21.13;;;19.13;;
73841;SDS011;62184;52.006;5.924;2023-12-28T07:23:38;21.40;;;19.38;;
73841;SDS011;62184;52.006;5.924;2023-12-28T07:26:05;22.52;;;20.38;;
73841;SDS011;62184;52.006;5.924;2023-12-28T07:28:31;21.35;;;18.98;;
73841;SDS011;62184;52.006;5.924;2023-12-28T07:30:58;21.60;;;19.40;;
73841;SDS011;62184;52.006;5.924;2023-12-28T07:33:26;21.00;;;18.85;;
73841;SDS011;62184;52.006;5.924;2023-12-28T07:35:53;21.33;;;19.27;;
73841;SDS011;62184;52.006;5.924;2023-12-28T07:38:19;21.30;;;19.20;;
73841;SDS011;62184;52.006;5.924;2023-12-28T07:40:46;20.38;;;18.40;;
73841;SDS011;62184;52.006;5.924;2023-12-28T07:43:12;21.48;;;19.27;;
73841;SDS011;62184;52.006;5.924;2023-12-28T07:45:38;21.83;;;19.70;;
73841;SDS011;62184;52.006;5.924;2023-12-28T07:48:05;21.15;;;18.88;;
73841;SDS011;62184;52.006;5.924;2023-12-28T07:50:35;23.80;;;21.25;;
73841;SDS011;62184;52.006;5.924;2023-12-28T07:53:02;22.02;;;19.33;;
73841;SDS011;62184;52.006;5.924;2023-12-28T07:55:28;20.57;;;18.63;;
73841;SDS011;62184;52.006;5.924;2023-12-28T07:57:55;20.75;;;18.75;;
73841;SDS011;62184;52.006;5.924;2023-12-28T08:00:21;20.67;;;18.48;;
73841;SDS011;62184;52.006;5.924;2023-12-28T08:02:48;20.92;;;18.83;;
73841;SDS011;62184;52.006;5.924;2023-12-28T08:05:14;20.38;;;17.60;;
73841;SDS011;62184;52.006;5.924;2023-12-28T08:07:43;20.58;;;18.48;;
73841;SDS011;62184;52.006;5.924;2023-12-28T08:10:10;20.23;;;18.10;;
73841;SDS011;62184;52.006;5.924;2023-12-28T08:12:36;20.95;;;18.88;;
73841;SDS011;62184;52.006;5.924;2023-12-28T08:15:03;21.50;;;19.20;;
73841;SDS011;62184;52.006;5.924;2023-12-28T08:17:31;20.65;;;18.63;;
73841;SDS011;62184;52.006;5.924;2023-12-28T08:19:57;21.70;;;19.00;;
73841;SDS011;62184;52.006;5.924;2023-12-28T08:22:24;20.80;;;18.77;;
73841;SDS011;62184;52.006;5.924;2023-12-28T08:24:53;21.10;;;18.88;;
73841;SDS011;62184;52.006;5.924;2023-12-28T08:27:19;21.23;;;19.35;;
73841;SDS011;62184;52.006;5.924;2023-12-28T08:29:45;21.67;;;19.52;;
73841;SDS011;62184;52.006;5.924;2023-12-28T08:32:12;21.27;;;19.10;;
73841;SDS011;62184;52.006;5.924;2023-12-28T08:34:38;21.40;;;18.83;;
73841;SDS011;62184;52.006;5.924;2023-12-28T08:37:05;21.02;;;18.38;;
73841;SDS011;62184;52.006;5.924;2023-12-28T08:39:31;21.25;;;18.63;;
73841;SDS011;62184;52.006;5.924;2023-12-28T08:42:00;19.83;;;17.60;;
73841;SDS011;62184;52.006;5.924;2023-12-28T08:44:27;20.17;;;17.67;;
73841;SDS011;62184;52.006;5.924;2023-12-28T08:46:53;20.55;;;18.27;;
73841;SDS011;62184;52.006;5.924;2023-12-28T08:49:20;20.87;;;17.90;;
73841;SDS011;62184;52.006;5.924;2023-12-28T08:51:46;20.98;;;18.90;;
73841;SDS011;62184;52.006;5.924;2023-12-28T08:54:12;21.08;;;18.90;;
73841;SDS011;62184;52.006;5.924;2023-12-28T08:56:39;20.67;;;18.52;;
73841;SDS011;62184;52.006;5.924;2023-12-28T08:59:08;21.10;;;18.60;;
73841;SDS011;62184;52.006;5.924;2023-12-28T09:01:34;20.97;;;18.07;;
73841;SDS011;62184;52.006;5.924;2023-12-28T09:04:01;21.35;;;19.25;;
73841;SDS011;62184;52.006;5.924;2023-12-28T09:06:27;20.70;;;18.50;;
73841;SDS011;62184;52.006;5.924;2023-12-28T09:08:54;21.23;;;18.63;;
73841;SDS011;62184;52.006;5.924;2023-12-28T09:11:20;21.10;;;18.73;;
73841;SDS011;62184;52.006;5.924;2023-12-28T09:13:47;20.60;;;18.63;;
73841;SDS011;62184;52.006;5.924;2023-12-28T09:16:16;22.55;;;18.73;;
73841;SDS011;62184;52.006;5.924;2023-12-28T09:18:42;22.52;;;19.15;;
73841;SDS011;62184;52.006;5.924;2023-12-28T09:21:09;24.90;;;19.27;;
73841;SDS011;62184;52.006;5.924;2023-12-28T09:23:36;21.13;;;18.95;;
73841;SDS011;62184;52.006;5.924;2023-12-28T09:26:04;22.25;;;20.15;;
73841;SDS011;62184;52.006;5.924;2023-12-28T09:28:31;21.80;;;19.60;;
73841;SDS011;62184;52.006;5.924;2023-12-28T09:30:59;21.45;;;18.77;;
73841;SDS011;62184;52.006;5.924;2023-12-28T09:33:29;20.17;;;18.17;;
73841;SDS011;62184;52.006;5.924;2023-12-28T09:35:56;21.02;;;18.90;;
73841;SDS011;62184;52.006;5.924;2023-12-28T09:38:22;21.00;;;18.80;;
73841;SDS011;62184;52.006;5.924;2023-12-28T09:40:49;23.80;;;19.80;;
73841;SDS011;62184;52.006;5.924;2023-12-28T09:43:21;21.40;;;19.15;;
73841;SDS011;62184;52.006;5.924;2023-12-28T09:45:49;22.15;;;18.25;;
73841;SDS011;62184;52.006;5.924;2023-12-28T09:48:16;21.30;;;18.60;;
73841;SDS011;62184;52.006;5.924;2023-12-28T09:50:48;23.37;;;19.70;;
73841;SDS011;62184;52.006;5.924;2023-12-28T09:53:15;21.48;;;19.23;;
73841;SDS011;62184;52.006;5.924;2023-12-28T09:55:42;21.90;;;19.60;;
73841;SDS011;62184;52.006;5.924;2023-12-28T09:58:09;22.13;;;19.83;;
73841;SDS011;62184;52.006;5.924;2023-12-28T10:00:42;22.15;;;19.80;;
73841;SDS011;62184;52.006;5.924;2023-12-28T10:03:11;21.73;;;19.52;;
73841;SDS011;62184;52.006;5.924;2023-12-28T10:05:40;22.07;;;19.40;;
73841;SDS011;62184;52.006;5.924;2023-12-28T10:08:10;21.77;;;19.58;;
73841;SDS011;62184;52.006;5.924;2023-12-28T10:10:37;22.23;;;19.00;;
73841;SDS011;62184;52.006;5.924;2023-12-28T10:13:04;20.65;;;18.45;;
73841;SDS011;62184;52.006;5.924;2023-12-28T10:15:32;20.17;;;18.10;;
73841;SDS011;62184;52.006;5.924;2023-12-28T10:17:58;22.20;;;18.60;;
73841;SDS011;62184;52.006;5.924;2023-12-28T10:20:26;21.30;;;19.08;;
73841;SDS011;62184;52.006;5.924;2023-12-28T10:22:52;21.00;;;18.33;;
73841;SDS011;62184;52.006;5.924;2023-12-28T10:25:21;21.13;;;18.92;;
73841;SDS011;62184;52.006;5.924;2023-12-28T10:27:50;21.85;;;19.52;;
73841;SDS011;62184;52.006;5.924;2023-12-28T10:30:17;23.23;;;19.15;;
73841;SDS011;62184;52.006;5.924;2023-12-28T10:32:43;22.15;;;19.38;;
73841;SDS011;62184;52.006;5.924;2023-12-28T10:35:11;21.90;;;19.60;;
73841;SDS011;62184;52.006;5.924;2023-12-28T10:37:39;25.42;;;19.05;;
73841;SDS011;62184;52.006;5.924;2023-12-28T10:40:08;20.80;;;18.70;;
73841;SDS011;62184;52.006;5.924;2023-12-28T10:42:46;21.10;;;18.90;;
73841;SDS011;62184;52.006;5.924;2023-12-28T10:45:18;21.42;;;18.17;;
73841;SDS011;62184;52.006;5.924;2023-12-28T10:47:46;19.98;;;17.15;;
73841;SDS011;62184;52.006;5.924;2023-12-28T10:50:25;22.75;;;17.20;;
73841;SDS011;62184;52.006;5.924;2023-12-28T10:52:56;19.25;;;17.10;;
73841;SDS011;62184;52.006;5.924;2023-12-28T10:55:40;20.23;;;18.13;;
73841;SDS011;62184;52.006;5.924;2023-12-28T10:58:21;20.93;;;17.30;;
73841;SDS011;62184;52.006;5.924;2023-12-28T11:00:59;21.02;;;17.45;;
73841;SDS011;62184;52.006;5.924;2023-12-28T11:03:34;18.45;;;16.23;;
73841;SDS011;62184;52.006;5.924;2023-12-28T11:06:06;21.17;;;16.80;;
73841;SDS011;62184;52.006;5.924;2023-12-28T11:08:35;20.65;;;17.15;;
73841;SDS011;62184;52.006;5.924;2023-12-28T11:11:03;19.20;;;17.10;;
73841;SDS011;62184;52.006;5.924;2023-12-28T11:13:36;20.52;;;16.58;;
73841;SDS011;62184;52.006;5.924;2023-12-28T11:16:05;20.50;;;17.35;;
73841;SDS011;62184;52.006;5.924;2023-12-28T11:18:32;22.15;;;17.98;;
73841;SDS011;62184;52.006;5.924;2023-12-28T11:20:58;20.98;;;17.20;;
73841;SDS011;62184;52.006;5.924;2023-12-28T11:23:25;21.70;;;16.80;;
73841;SDS011;62184;52.006;5.924;2023-12-28T11:25:52;18.80;;;16.80;;
73841;SDS011;62184;52.006;5.924;2023-12-28T11:28:19;21.88;;;16.70;;
73841;SDS011;62184;52.006;5.924;2023-12-28T11:30:48;19.52;;;16.15;;
73841;SDS011;62184;52.006;5.924;2023-12-28T11:33:17;19.27;;;16.90;;
73841;SDS011;62184;52.006;5.924;2023-12-28T11:35:43;21.77;;;17.13;;
73841;SDS011;62184;52.006;5.924;2023-12-28T11:38:13;21.17;;;17.27;;
73841;SDS011;62184;52.006;5.924;2023-12-28T11:40:44;24.05;;;17.58;;
73841;SDS011;62184;52.006;5.924;2023-12-28T11:43:14;20.80;;;16.90;;
73841;SDS011;62184;52.006;5.924;2023-12-28T11:45:49;23.63;;;16.77;;
73841;SDS011;62184;52.006;5.924;2023-12-28T11:48:22;22.92;;;17.60;;
73841;SDS011;62184;52.006;5.924;2023-12-28T11:50:49;21.40;;;19.10;;
73841;SDS011;62184;52.006;5.924;2023-12-28T11:53:15;23.13;;;18.17;;
73841;SDS011;62184;52.006;5.924;2023-12-28T11:55:44;23.10;;;17.92;;
73841;SDS011;62184;52.006;5.924;2023-12-28T11:58:10;20.87;;;17.60;;
73841;SDS011;62184;52.006;5.924;2023-12-28T12:00:37;19.53;;;17.43;;
73841;SDS011;62184;52.006;5.924;2023-12-28T12:03:06;21.02;;;17.13;;
73841;SDS011;62184;52.006;5.924;2023-12-28T12:05:36;20.63;;;17.10;;
73841;SDS011;62184;52.006;5.924;2023-12-28T12:08:03;22.25;;;17.55;;
73841;SDS011;62184;52.006;5.924;2023-12-28T12:10:31;21.20;;;17.40;;
73841;SDS011;62184;52.006;5.924;2023-12-28T12:12:57;23.40;;;17.15;;
73841;SDS011;62184;52.006;5.924;2023-12-28T12:15:25;22.80;;;17.10;;
73841;SDS011;62184;52.006;5.924;2023-12-28T12:17:52;19.17;;;17.10;;
73841;SDS011;62184;52.006;5.924;2023-12-28T12:20:21;20.92;;;18.65;;
73841;SDS011;62184;52.006;5.924;2023-12-28T12:22:48;20.90;;;17.23;;
73841;SDS011;62184;52.006;5.924;2023-12-28T12:25:15;19.73;;;16.95;;
73841;SDS011;62184;52.006;5.924;2023-12-28T12:27:42;22.85;;;17.42;;
73841;SDS011;62184;52.006;5.924;2023-12-28T12:30:09;20.50;;;17.85;;
73841;SDS011;62184;52.006;5.924;2023-12-28T12:32:36;20.70;;;17.45;;
73841;SDS011;62184;52.006;5.924;2023-12-28T12:35:04;24.57;;;18.63;;
73841;SDS011;62184;52.006;5.924;2023-12-28T12:37:34;21.17;;;18.55;;
73841;SDS011;62184;52.006;5.924;2023-12-28T12:40:00;21.17;;;17.83;;
73841;SDS011;62184;52.006;5.924;2023-12-28T12:42:29;24.25;;;18.17;;
73841;SDS011;62184;52.006;5.924;2023-12-28T12:44:55;23.67;;;18.10;;
73841;SDS011;62184;52.006;5.924;2023-12-28T12:47:22;22.23;;;17.70;;
73841;SDS011;62184;52.006;5.924;2023-12-28T12:49:48;23.92;;;17.95;;
73841;SDS011;62184;52.006;5.924;2023-12-28T12:52:17;21.83;;;19.13;;
73841;SDS011;62184;52.006;5.924;2023-12-28T12:54:54;20.90;;;18.52;;
73841;SDS011;62184;52.006;5.924;2023-12-28T12:57:22;22.77;;;19.00;;
73841;SDS011;62184;52.006;5.924;2023-12-28T12:59:50;23.90;;;18.48;;
73841;SDS011;62184;52.006;5.924;2023-12-28T13:02:17;23.10;;;18.33;;
73841;SDS011;62184;52.006;5.924;2023-12-28T13:04:43;22.00;;;17.87;;
73841;SDS011;62184;52.006;5.924;2023-12-28T13:07:10;21.60;;;17.67;;
73841;SDS011;62184;52.006;5.924;2023-12-28T13:09:36;20.42;;;18.33;;
73841;SDS011;62184;52.006;5.924;2023-12-28T13:12:06;24.48;;;18.10;;
73841;SDS011;62184;52.006;5.924;2023-12-28T13:14:33;19.80;;;17.80;;
73841;SDS011;62184;52.006;5.924;2023-12-28T13:16:59;23.95;;;18.70;;
73841;SDS011;62184;52.006;5.924;2023-12-28T13:19:26;24.13;;;19.40;;
73841;SDS011;62184;52.006;5.924;2023-12-28T13:21:53;21.55;;;18.75;;
73841;SDS011;62184;52.006;5.924;2023-12-28T13:24:19;21.77;;;18.48;;
73841;SDS011;62184;52.006;5.924;2023-12-28T13:26:46;21.90;;;18.42;;
73841;SDS011;62184;52.006;5.924;2023-12-28T13:29:15;23.87;;;18.67;;
73841;SDS011;62184;52.006;5.924;2023-12-28T13:31:41;22.48;;;18.65;;
73841;SDS011;62184;52.006;5.924;2023-12-28T13:34:08;21.75;;;18.35;;
73841;SDS011;62184;52.006;5.924;2023-12-28T13:36:34;20.95;;;18.38;;
73841;SDS011;62184;52.006;5.924;2023-12-28T13:39:00;21.13;;;18.05;;
73841;SDS011;62184;52.006;5.924;2023-12-28T13:41:27;21.98;;;18.75;;
73841;SDS011;62184;52.006;5.924;2023-12-28T13:43:53;24.10;;;19.03;;
73841;SDS011;62184;52.006;5.924;2023-12-28T13:46:22;21.57;;;17.53;;
73841;SDS011;62184;52.006;5.924;2023-12-28T13:48:49;22.33;;;18.27;;
73841;SDS011;62184;52.006;5.924;2023-12-28T13:51:15;23.05;;;19.20;;
73841;SDS011;62184;52.006;5.924;2023-12-28T13:53:41;21.42;;;19.05;;
73841;SDS011;62184;52.006;5.924;2023-12-28T13:56:08;21.52;;;19.10;;
73841;SDS011;62184;52.006;5.924;2023-12-28T13:58:34;21.40;;;19.10;;
73841;SDS011;62184;52.006;5.924;2023-12-28T14:01:01;20.80;;;18.70;;
73841;SDS011;62184;52.006;5.924;2023-12-28T14:03:30;21.05;;;18.27;;
73841;SDS011;62184;52.006;5.924;2023-12-28T14:05:56;25.70;;;19.35;;
73841;SDS011;62184;52.006;5.924;2023-12-28T14:08:23;23.88;;;18.92;;
73841;SDS011;62184;52.006;5.924;2023-12-28T14:10:49;23.65;;;19.00;;
73841;SDS011;62184;52.006;5.924;2023-12-28T14:13:15;24.20;;;18.50;;
73841;SDS011;62184;52.006;5.924;2023-12-28T14:15:42;22.25;;;18.55;;
73841;SDS011;62184;52.006;5.924;2023-12-28T14:18:08;22.48;;;18.75;;
73841;SDS011;62184;52.006;5.924;2023-12-28T14:20:37;23.95;;;18.98;;
73841;SDS011;62184;52.006;5.924;2023-12-28T14:23:04;21.33;;;18.10;;